ATC104 HTZA-HTDA
Flight info
| Callsign | ATC104 |
|---|---|
| Flight time | 0h 48m |
| Altitude | 10000 |
| Route | ETULO/N0287F090 DCT GAGMU |
| Aircraft | B39M/M-SDE2E3FGHIRWXY/LB1 |
Departure
| Time | 2026-05-09 21:41 |
|---|---|
| Airport | Abeid Amani Karume International Airport (HTZA) |
Arrival
| Time | 2026-05-09 22:29 |
|---|---|
| Airport | Julius Nyerere International Airport (HTDA) |
| Time | Latitude | Longitude | Altitude | Speed | Heading |
|---|---|---|---|---|---|
| 2026-05-09 21:17 | -6.22217 | 39.22248 | 57 ft | 0 kts | 264° |
| 2026-05-09 21:29 | -6.22216 | 39.22256 | 57 ft | 2 kts | 263° |
| 2026-05-09 21:29 | -6.22214 | 39.22273 | 61 ft | 2 kts | 267° |
| 2026-05-09 21:30 | -6.22214 | 39.22290 | 50 ft | 2 kts | 271° |
| 2026-05-09 21:30 | -6.22215 | 39.22306 | 52 ft | 2 kts | 284° |
| 2026-05-09 21:30 | -6.22223 | 39.22320 | 55 ft | 2 kts | 339° |
| 2026-05-09 21:30 | -6.22234 | 39.22323 | 51 ft | 1 kts | 360° |
| 2026-05-09 21:32 | -6.22215 | 39.22321 | 52 ft | 9 kts | 353° |
| 2026-05-09 21:38 | -6.22210 | 39.22321 | 57 ft | 10 kts | 353° |
| 2026-05-09 21:39 | -6.22121 | 39.22311 | 53 ft | 17 kts | 354° |
| 2026-05-09 21:39 | -6.21987 | 39.22297 | 57 ft | 20 kts | 354° |
| 2026-05-09 21:39 | -6.21835 | 39.22282 | 55 ft | 17 kts | 354° |
| 2026-05-09 21:39 | -6.21769 | 39.22316 | 53 ft | 7 kts | 72° |
| 2026-05-09 21:40 | -6.21761 | 39.22380 | 55 ft | 6 kts | 86° |
| 2026-05-09 21:40 | -6.21781 | 39.22445 | 56 ft | 7 kts | 150° |
| 2026-05-09 21:40 | -6.21904 | 39.22461 | 58 ft | 46 kts | 174° |
| 2026-05-09 21:40 | -6.22519 | 39.22522 | 53 ft | 128 kts | 174° |
| 2026-05-09 21:41 | -6.23616 | 39.22645 | 275 ft | 178 kts | 173° |
| 2026-05-09 21:41 | -6.24921 | 39.22789 | 1000 ft | 202 kts | 174° |
| 2026-05-09 21:41 | -6.25870 | 39.22885 | 1429 ft | 211 kts | 174° |
| 2026-05-09 21:41 | -6.27361 | 39.22999 | 2141 ft | 215 kts | 174° |
| 2026-05-09 21:42 | -6.28901 | 39.23110 | 2657 ft | 229 kts | 174° |
| 2026-05-09 21:42 | -6.30541 | 39.23220 | 3165 ft | 241 kts | 174° |
| 2026-05-09 21:42 | -6.32239 | 39.23323 | 3871 ft | 247 kts | 173° |
| 2026-05-09 21:42 | -6.33946 | 39.23707 | 4500 ft | 263 kts | 160° |
| 2026-05-09 21:43 | -6.35752 | 39.24378 | 4860 ft | 288 kts | 157° |
| 2026-05-09 21:43 | -6.37644 | 39.25126 | 5651 ft | 295 kts | 157° |
| 2026-05-09 21:43 | -6.39572 | 39.25873 | 6481 ft | 299 kts | 158° |
| 2026-05-09 21:43 | -6.40798 | 39.26337 | 6724 ft | 305 kts | 158° |
| 2026-05-09 22:21 | -6.42532 | 39.26981 | 6914 ft | 326 kts | 159° |
| 2026-05-09 22:22 | -6.44737 | 39.27783 | 6976 ft | 343 kts | 159° |
| 2026-05-09 22:22 | -6.46996 | 39.28591 | 6976 ft | 346 kts | 159° |
| 2026-05-09 22:22 | -6.49269 | 39.29394 | 6978 ft | 345 kts | 159° |
| 2026-05-09 22:22 | -6.51535 | 39.30192 | 6979 ft | 346 kts | 160° |
| 2026-05-09 22:23 | -6.53777 | 39.30979 | 6982 ft | 346 kts | 159° |
| 2026-05-09 22:23 | -6.56055 | 39.31778 | 6983 ft | 346 kts | 160° |
| 2026-05-09 22:23 | -6.58311 | 39.32569 | 6968 ft | 334 kts | 159° |
| 2026-05-09 22:23 | -6.59711 | 39.33060 | 6712 ft | 326 kts | 159° |
| 2026-05-09 22:24 | -6.61829 | 39.33803 | 6161 ft | 316 kts | 159° |
| 2026-05-09 22:24 | -6.63878 | 39.34523 | 5648 ft | 307 kts | 159° |
| 2026-05-09 22:24 | -6.65863 | 39.35219 | 5155 ft | 298 kts | 159° |
| 2026-05-09 22:24 | -6.67800 | 39.35900 | 4677 ft | 291 kts | 159° |
| 2026-05-09 22:25 | -6.69700 | 39.36529 | 4171 ft | 285 kts | 166° |
| 2026-05-09 22:25 | -6.71660 | 39.36432 | 3671 ft | 286 kts | 198° |
| 2026-05-09 22:25 | -6.73279 | 39.35295 | 3214 ft | 285 kts | 223° |
| 2026-05-09 22:25 | -6.74596 | 39.33814 | 2733 ft | 282 kts | 226° |
| 2026-05-09 22:26 | -6.75883 | 39.32343 | 2251 ft | 277 kts | 225° |
| 2026-05-09 22:26 | -6.77190 | 39.30942 | 1889 ft | 268 kts | 223° |
| 2026-05-09 22:26 | -6.78437 | 39.29659 | 1815 ft | 245 kts | 222° |
| 2026-05-09 22:26 | -6.79584 | 39.28497 | 1674 ft | 224 kts | 221° |
| 2026-05-09 22:27 | -6.80643 | 39.27432 | 1535 ft | 205 kts | 222° |
| 2026-05-09 22:27 | -6.81598 | 39.26474 | 1397 ft | 183 kts | 221° |
| 2026-05-09 22:27 | -6.82453 | 39.25617 | 1239 ft | 164 kts | 221° |
| 2026-05-09 22:27 | -6.83248 | 39.24822 | 1042 ft | 159 kts | 222° |
| 2026-05-09 22:28 | -6.83999 | 39.24073 | 897 ft | 155 kts | 223° |
| 2026-05-09 22:28 | -6.84679 | 39.23395 | 743 ft | 145 kts | 223° |
| 2026-05-09 22:28 | -6.85368 | 39.22690 | 527 ft | 142 kts | 228° |
| 2026-05-09 22:28 | -6.86067 | 39.22005 | 347 ft | 142 kts | 224° |
| 2026-05-09 22:29 | -6.86780 | 39.21289 | 220 ft | 145 kts | 222° |
| 2026-05-09 22:29 | -6.87485 | 39.20592 | 185 ft | 140 kts | 225° |
| 2026-05-09 22:29 | -6.88043 | 39.20031 | 177 ft | 49 kts | 225° |
| 2026-05-09 22:29 | -6.88219 | 39.19849 | 181 ft | 24 kts | 229° |
| 2026-05-09 22:30 | -6.88248 | 39.19747 | 182 ft | 15 kts | 289° |
| 2026-05-09 22:30 | -6.88167 | 39.19690 | 190 ft | 15 kts | 355° |
| 2026-05-09 22:30 | -6.88081 | 39.19731 | 184 ft | 14 kts | 45° |
| 2026-05-09 22:30 | -6.88013 | 39.19799 | 181 ft | 13 kts | 44° |
| 2026-05-09 22:31 | -6.87948 | 39.19863 | 180 ft | 13 kts | 44° |
| 2026-05-09 22:31 | -6.87885 | 39.19925 | 180 ft | 13 kts | 45° |
| 2026-05-09 22:31 | -6.87825 | 39.19987 | 180 ft | 12 kts | 46° |
| 2026-05-09 22:31 | -6.87767 | 39.20049 | 180 ft | 12 kts | 46° |
| 2026-05-09 22:32 | -6.87711 | 39.20109 | 181 ft | 12 kts | 45° |
| 2026-05-09 22:32 | -6.87655 | 39.20165 | 183 ft | 11 kts | 45° |
| 2026-05-09 22:32 | -6.87600 | 39.20221 | 183 ft | 11 kts | 45° |
| 2026-05-09 22:32 | -6.87547 | 39.20274 | 183 ft | 11 kts | 45° |
| 2026-05-09 22:33 | -6.87498 | 39.20329 | 183 ft | 10 kts | 46° |
| 2026-05-09 22:33 | -6.87448 | 39.20380 | 183 ft | 10 kts | 45° |
| 2026-05-09 22:33 | -6.87399 | 39.20429 | 183 ft | 10 kts | 42° |
| 2026-05-09 22:33 | -6.87351 | 39.20476 | 183 ft | 10 kts | 46° |
| 2026-05-09 22:34 | -6.87304 | 39.20524 | 182 ft | 10 kts | 44° |
| 2026-05-09 22:34 | -6.87242 | 39.20585 | 180 ft | 15 kts | 44° |
| 2026-05-09 22:34 | -6.87161 | 39.20666 | 179 ft | 18 kts | 44° |
| 2026-05-09 22:34 | -6.87065 | 39.20762 | 178 ft | 20 kts | 45° |
| 2026-05-09 22:35 | -6.86959 | 39.20870 | 177 ft | 23 kts | 46° |
| 2026-05-09 22:35 | -6.86847 | 39.20981 | 179 ft | 20 kts | 44° |
| 2026-05-09 22:35 | -6.86752 | 39.21059 | 179 ft | 16 kts | 10° |
| 2026-05-09 22:35 | -6.86665 | 39.21070 | 180 ft | 11 kts | 32° |
| 2026-05-09 22:36 | -6.86604 | 39.21129 | 181 ft | 11 kts | 44° |
| 2026-05-09 22:36 | -6.86576 | 39.21144 | 181 ft | 0 kts | 5° |
| 2026-05-09 22:36 | -6.86567 | 39.21139 | 181 ft | 3 kts | 324° |
| 2026-05-09 22:36 | -6.86545 | 39.21117 | 181 ft | 6 kts | 315° |
| 2026-05-09 22:37 | -6.86520 | 39.21092 | 181 ft | 2 kts | 315° |
| 2026-05-09 22:37 | -6.86517 | 39.21089 | 181 ft | 0 kts | 315° |